sensor_id;sensor_type;location;lat;lon;timestamp;pressure;altitude;pressure_sealevel;temperature;humidity
59367;BME280;45163;47.690;11.770;2023-05-07T00:01:46;93309.06;;;11.83;100.00
59367;BME280;45163;47.690;11.770;2023-05-07T00:04:12;93312.31;;;11.78;100.00
59367;BME280;45163;47.690;11.770;2023-05-07T00:06:38;93306.97;;;11.75;100.00
59367;BME280;45163;47.690;11.770;2023-05-07T00:09:05;93302.91;;;11.79;100.00
59367;BME280;45163;47.690;11.770;2023-05-07T00:11:31;93305.97;;;11.81;100.00
59367;BME280;45163;47.690;11.770;2023-05-07T00:13:57;93298.00;;;11.74;100.00
59367;BME280;45163;47.690;11.770;2023-05-07T00:16:22;93309.84;;;11.71;100.00
59367;BME280;45163;47.690;11.770;2023-05-07T00:18:48;93306.34;;;11.70;100.00
59367;BME280;45163;47.690;11.770;2023-05-07T00:21:14;93308.84;;;11.65;100.00
59367;BME280;45163;47.690;11.770;2023-05-07T00:23:40;93314.09;;;11.72;100.00
59367;BME280;45163;47.690;11.770;2023-05-07T00:26:05;93307.84;;;11.71;100.00
59367;BME280;45163;47.690;11.770;2023-05-07T00:28:31;93308.06;;;11.77;100.00
59367;BME280;45163;47.690;11.770;2023-05-07T00:30:57;93306.53;;;11.76;100.00
59367;BME280;45163;47.690;11.770;2023-05-07T00:33:23;93306.34;;;11.83;100.00
59367;BME280;45163;47.690;11.770;2023-05-07T00:35:48;93307.84;;;11.84;100.00
59367;BME280;45163;47.690;11.770;2023-05-07T00:38:14;93295.41;;;11.83;100.00
59367;BME280;45163;47.690;11.770;2023-05-07T00:40:40;93297.69;;;11.85;100.00
59367;BME280;45163;47.690;11.770;2023-05-07T00:43:06;93295.06;;;11.68;100.00
59367;BME280;45163;47.690;11.770;2023-05-07T00:45:32;93290.28;;;11.60;100.00
59367;BME280;45163;47.690;11.770;2023-05-07T00:48:01;93292.44;;;11.65;100.00
59367;BME280;45163;47.690;11.770;2023-05-07T00:50:28;93295.50;;;11.67;100.00
59367;BME280;45163;47.690;11.770;2023-05-07T00:52:54;93293.53;;;11.67;100.00
59367;BME280;45163;47.690;11.770;2023-05-07T00:55:21;93294.31;;;11.68;100.00
59367;BME280;45163;47.690;11.770;2023-05-07T00:57:47;93288.06;;;11.67;100.00
59367;BME280;45163;47.690;11.770;2023-05-07T01:00:13;93293.47;;;11.58;100.00
59367;BME280;45163;47.690;11.770;2023-05-07T01:02:39;93297.72;;;11.59;100.00
59367;BME280;45163;47.690;11.770;2023-05-07T01:05:05;93294.66;;;11.57;100.00
59367;BME280;45163;47.690;11.770;2023-05-07T01:07:33;93299.16;;;11.51;100.00
59367;BME280;45163;47.690;11.770;2023-05-07T01:10:00;93287.56;;;11.47;100.00
59367;BME280;45163;47.690;11.770;2023-05-07T01:12:26;93287.13;;;11.48;100.00
59367;BME280;45163;47.690;11.770;2023-05-07T01:14:53;93282.88;;;11.47;100.00
59367;BME280;45163;47.690;11.770;2023-05-07T01:17:19;93294.13;;;11.37;100.00
59367;BME280;45163;47.690;11.770;2023-05-07T01:19:45;93286.38;;;11.35;100.00
59367;BME280;45163;47.690;11.770;2023-05-07T01:22:11;93296.47;;;11.26;100.00
59367;BME280;45163;47.690;11.770;2023-05-07T01:24:40;93288.16;;;11.29;100.00
59367;BME280;45163;47.690;11.770;2023-05-07T01:27:06;93290.13;;;11.16;100.00
59367;BME280;45163;47.690;11.770;2023-05-07T01:29:32;93286.31;;;11.13;100.00
59367;BME280;45163;47.690;11.770;2023-05-07T01:31:59;93287.53;;;11.12;100.00
59367;BME280;45163;47.690;11.770;2023-05-07T01:34:25;93284.34;;;11.14;100.00
59367;BME280;45163;47.690;11.770;2023-05-07T01:36:53;93289.16;;;11.10;100.00
59367;BME280;45163;47.690;11.770;2023-05-07T01:39:21;93286.63;;;11.15;100.00
59367;BME280;45163;47.690;11.770;2023-05-07T01:41:48;93280.28;;;11.18;100.00
59367;BME280;45163;47.690;11.770;2023-05-07T01:44:14;93281.16;;;11.15;100.00
59367;BME280;45163;47.690;11.770;2023-05-07T01:46:40;93274.50;;;11.29;100.00
59367;BME280;45163;47.690;11.770;2023-05-07T01:49:06;93284.22;;;11.30;100.00
59367;BME280;45163;47.690;11.770;2023-05-07T01:51:32;93282.13;;;11.34;100.00
59367;BME280;45163;47.690;11.770;2023-05-07T01:53:58;93276.66;;;11.34;100.00
59367;BME280;45163;47.690;11.770;2023-05-07T01:56:25;93284.09;;;11.34;100.00
59367;BME280;45163;47.690;11.770;2023-05-07T01:58:51;93278.63;;;11.34;100.00
59367;BME280;45163;47.690;11.770;2023-05-07T02:01:17;93273.59;;;11.32;100.00
59367;BME280;45163;47.690;11.770;2023-05-07T02:03:43;93272.81;;;11.44;100.00
59367;BME280;45163;47.690;11.770;2023-05-07T02:06:09;93272.81;;;11.44;100.00
59367;BME280;45163;47.690;11.770;2023-05-07T02:08:35;93269.13;;;11.38;100.00
59367;BME280;45163;47.690;11.770;2023-05-07T02:11:01;93267.28;;;11.22;100.00
59367;BME280;45163;47.690;11.770;2023-05-07T02:13:32;93261.63;;;11.17;100.00
59367;BME280;45163;47.690;11.770;2023-05-07T02:15:57;93263.34;;;11.11;100.00
59367;BME280;45163;47.690;11.770;2023-05-07T02:18:23;93269.25;;;11.09;100.00
59367;BME280;45163;47.690;11.770;2023-05-07T02:20:49;93266.66;;;10.93;100.00
59367;BME280;45163;47.690;11.770;2023-05-07T02:23:15;93265.03;;;10.95;100.00
59367;BME280;45163;47.690;11.770;2023-05-07T02:25:41;93278.22;;;10.97;100.00
59367;BME280;45163;47.690;11.770;2023-05-07T02:28:06;93276.25;;;10.97;100.00
59367;BME280;45163;47.690;11.770;2023-05-07T02:30:32;93263.81;;;10.96;100.00
59367;BME280;45163;47.690;11.770;2023-05-07T02:32:58;93267.50;;;10.90;100.00
59367;BME280;45163;47.690;11.770;2023-05-07T02:35:24;93267.84;;;10.92;100.00
59367;BME280;45163;47.690;11.770;2023-05-07T02:37:50;93270.59;;;10.92;100.00
59367;BME280;45163;47.690;11.770;2023-05-07T02:40:16;93271.13;;;11.00;100.00
59367;BME280;45163;47.690;11.770;2023-05-07T02:42:42;93274.53;;;11.04;100.00
59367;BME280;45163;47.690;11.770;2023-05-07T02:45:08;93273.97;;;10.96;100.00
59367;BME280;45163;47.690;11.770;2023-05-07T02:47:34;93272.97;;;11.03;100.00
59367;BME280;45163;47.690;11.770;2023-05-07T02:49:59;93270.91;;;11.07;100.00
59367;BME280;45163;47.690;11.770;2023-05-07T02:52:25;93268.28;;;11.03;100.00
59367;BME280;45163;47.690;11.770;2023-05-07T02:54:51;93270.59;;;11.05;100.00
59367;BME280;45163;47.690;11.770;2023-05-07T02:57:17;93274.06;;;11.05;100.00
59367;BME280;45163;47.690;11.770;2023-05-07T02:59:42;93272.00;;;11.09;100.00
59367;BME280;45163;47.690;11.770;2023-05-07T03:02:08;93265.88;;;11.18;100.00
59367;BME280;45163;47.690;11.770;2023-05-07T03:04:34;93270.03;;;11.10;100.00
59367;BME280;45163;47.690;11.770;2023-05-07T03:07:00;93257.69;;;11.05;100.00
59367;BME280;45163;47.690;11.770;2023-05-07T03:09:26;93263.16;;;11.05;100.00
59367;BME280;45163;47.690;11.770;2023-05-07T03:11:51;93259.09;;;11.10;100.00
59367;BME280;45163;47.690;11.770;2023-05-07T03:14:17;93260.63;;;11.11;100.00
59367;BME280;45163;47.690;11.770;2023-05-07T03:16:43;93255.72;;;11.06;100.00
59367;BME280;45163;47.690;11.770;2023-05-07T03:19:09;93263.16;;;11.05;100.00
59367;BME280;45163;47.690;11.770;2023-05-07T03:21:34;93259.00;;;11.01;100.00
59367;BME280;45163;47.690;11.770;2023-05-07T03:24:00;93256.28;;;10.88;100.00
59367;BME280;45163;47.690;11.770;2023-05-07T03:26:26;93257.16;;;10.85;100.00
59367;BME280;45163;47.690;11.770;2023-05-07T03:28:52;93258.34;;;10.84;100.00
59367;BME280;45163;47.690;11.770;2023-05-07T03:31:17;93248.97;;;10.85;100.00
59367;BME280;45163;47.690;11.770;2023-05-07T03:34:16;93251.03;;;10.93;100.00
59367;BME280;45163;47.690;11.770;2023-05-07T03:36:35;93251.56;;;10.88;100.00
59367;BME280;45163;47.690;11.770;2023-05-07T03:39:01;93249.50;;;10.92;100.00
59367;BME280;45163;47.690;11.770;2023-05-07T03:41:26;93251.78;;;10.94;100.00
59367;BME280;45163;47.690;11.770;2023-05-07T03:43:52;93253.66;;;10.97;100.00
59367;BME280;45163;47.690;11.770;2023-05-07T03:46:18;93261.84;;;10.97;100.00
59367;BME280;45163;47.690;11.770;2023-05-07T03:48:44;93248.72;;;11.05;100.00
59367;BME280;45163;47.690;11.770;2023-05-07T03:51:09;93260.50;;;11.14;100.00
59367;BME280;45163;47.690;11.770;2023-05-07T03:53:35;93260.72;;;11.20;100.00
59367;BME280;45163;47.690;11.770;2023-05-07T03:56:01;93256.81;;;11.08;100.00
59367;BME280;45163;47.690;11.770;2023-05-07T03:58:27;93259.00;;;11.13;100.00
59367;BME280;45163;47.690;11.770;2023-05-07T04:00:52;93265.22;;;11.14;100.00
59367;BME280;45163;47.690;11.770;2023-05-07T04:03:18;93268.91;;;11.20;100.00
59367;BME280;45163;47.690;11.770;2023-05-07T04:05:44;93262.38;;;11.17;100.00
59367;BME280;45163;47.690;11.770;2023-05-07T04:08:10;93263.59;;;11.16;100.00
59367;BME280;45163;47.690;11.770;2023-05-07T04:10:35;93261.38;;;11.11;100.00
59367;BME280;45163;47.690;11.770;2023-05-07T04:13:01;93268.94;;;11.07;100.00
59367;BME280;45163;47.690;11.770;2023-05-07T04:15:27;93269.91;;;11.13;100.00
59367;BME280;45163;47.690;11.770;2023-05-07T04:17:53;93275.38;;;11.13;100.00
59367;BME280;45163;47.690;11.770;2023-05-07T04:20:18;93274.28;;;11.11;100.00
59367;BME280;45163;47.690;11.770;2023-05-07T04:22:44;93277.91;;;11.08;100.00
59367;BME280;45163;47.690;11.770;2023-05-07T04:25:10;93278.97;;;11.10;100.00
59367;BME280;45163;47.690;11.770;2023-05-07T04:27:35;93281.91;;;11.16;100.00
59367;BME280;45163;47.690;11.770;2023-05-07T04:30:02;93282.16;;;11.09;100.00
59367;BME280;45163;47.690;11.770;2023-05-07T04:32:28;93286.06;;;10.95;100.00
59367;BME280;45163;47.690;11.770;2023-05-07T04:34:55;93282.38;;;11.02;100.00
59367;BME280;45163;47.690;11.770;2023-05-07T04:37:21;93285.19;;;11.11;100.00
59367;BME280;45163;47.690;11.770;2023-05-07T04:39:46;93283.13;;;11.15;100.00
59367;BME280;45163;47.690;11.770;2023-05-07T04:42:16;93283.03;;;11.18;100.00
59367;BME280;45163;47.690;11.770;2023-05-07T04:44:43;93282.56;;;11.20;100.00
59367;BME280;45163;47.690;11.770;2023-05-07T04:47:08;93288.69;;;11.24;100.00
59367;BME280;45163;47.690;11.770;2023-05-07T04:49:35;93288.56;;;11.28;100.00
59367;BME280;45163;47.690;11.770;2023-05-07T04:52:01;93284.53;;;11.32;100.00
59367;BME280;45163;47.690;11.770;2023-05-07T04:54:26;93289.47;;;11.37;100.00
59367;BME280;45163;47.690;11.770;2023-05-07T04:56:52;93291.59;;;11.55;100.00
59367;BME280;45163;47.690;11.770;2023-05-07T04:59:18;93285.91;;;11.62;100.00
59367;BME280;45163;47.690;11.770;2023-05-07T05:01:44;93285.66;;;11.69;100.00
59367;BME280;45163;47.690;11.770;2023-05-07T05:04:09;93291.66;;;11.77;100.00
59367;BME280;45163;47.690;11.770;2023-05-07T05:06:35;93286.63;;;11.88;100.00
59367;BME280;45163;47.690;11.770;2023-05-07T05:09:01;93286.75;;;12.07;100.00
59367;BME280;45163;47.690;11.770;2023-05-07T05:11:27;93286.69;;;12.19;100.00
59367;BME280;45163;47.690;11.770;2023-05-07T05:13:52;93294.84;;;12.32;100.00
59367;BME280;45163;47.690;11.770;2023-05-07T05:16:18;93289.63;;;12.47;100.00
59367;BME280;45163;47.690;11.770;2023-05-07T05:18:44;93287.19;;;12.49;100.00
59367;BME280;45163;47.690;11.770;2023-05-07T05:21:10;93293.19;;;12.57;100.00
59367;BME280;45163;47.690;11.770;2023-05-07T05:23:36;93286.84;;;12.69;100.00
59367;BME280;45163;47.690;11.770;2023-05-07T05:26:01;93288.53;;;12.98;100.00
59367;BME280;45163;47.690;11.770;2023-05-07T05:28:27;93283.41;;;13.09;100.00
59367;BME280;45163;47.690;11.770;2023-05-07T05:30:53;93290.66;;;13.03;100.00
59367;BME280;45163;47.690;11.770;2023-05-07T05:33:19;93290.19;;;13.26;100.00
59367;BME280;45163;47.690;11.770;2023-05-07T05:35:45;93285.97;;;13.43;100.00
59367;BME280;45163;47.690;11.770;2023-05-07T05:38:10;93283.47;;;13.27;100.00
59367;BME280;45163;47.690;11.770;2023-05-07T05:40:36;93276.09;;;13.46;100.00
59367;BME280;45163;47.690;11.770;2023-05-07T05:43:02;93277.63;;;13.65;100.00
59367;BME280;45163;47.690;11.770;2023-05-07T05:45:28;93275.06;;;13.89;100.00
59367;BME280;45163;47.690;11.770;2023-05-07T05:47:55;93268.97;;;14.04;100.00
59367;BME280;45163;47.690;11.770;2023-05-07T05:50:21;93272.16;;;14.20;100.00
59367;BME280;45163;47.690;11.770;2023-05-07T05:52:47;93269.56;;;14.35;100.00
59367;BME280;45163;47.690;11.770;2023-05-07T05:55:13;93266.22;;;14.50;100.00
59367;BME280;45163;47.690;11.770;2023-05-07T05:57:38;93258.41;;;14.76;100.00
59367;BME280;45163;47.690;11.770;2023-05-07T06:00:05;93261.28;;;14.81;100.00
59367;BME280;45163;47.690;11.770;2023-05-07T06:02:31;93258.03;;;14.83;100.00
59367;BME280;45163;47.690;11.770;2023-05-07T06:04:56;93254.47;;;15.34;100.00
59367;BME280;45163;47.690;11.770;2023-05-07T06:07:22;93251.88;;;15.87;100.00
59367;BME280;45163;47.690;11.770;2023-05-07T06:09:48;93249.53;;;15.95;100.00
59367;BME280;45163;47.690;11.770;2023-05-07T06:12:13;93251.06;;;16.35;100.00
59367;BME280;45163;47.690;11.770;2023-05-07T06:14:39;93255.28;;;16.89;100.00
59367;BME280;45163;47.690;11.770;2023-05-07T06:17:06;93243.84;;;17.47;100.00
59367;BME280;45163;47.690;11.770;2023-05-07T06:19:32;93247.44;;;17.88;100.00
59367;BME280;45163;47.690;11.770;2023-05-07T06:21:58;93245.56;;;18.20;100.00
59367;BME280;45163;47.690;11.770;2023-05-07T06:24:24;93241.06;;;18.69;100.00
59367;BME280;45163;47.690;11.770;2023-05-07T06:26:50;93237.00;;;18.90;100.00
59367;BME280;45163;47.690;11.770;2023-05-07T06:29:15;93239.09;;;19.01;100.00
59367;BME280;45163;47.690;11.770;2023-05-07T06:31:41;93239.72;;;19.16;100.00
59367;BME280;45163;47.690;11.770;2023-05-07T06:34:07;93241.66;;;19.42;100.00
59367;BME280;45163;47.690;11.770;2023-05-07T06:36:33;93235.34;;;19.04;100.00
59367;BME280;45163;47.690;11.770;2023-05-07T06:38:59;93234.56;;;19.35;100.00
59367;BME280;45163;47.690;11.770;2023-05-07T06:41:25;93229.06;;;19.84;100.00
59367;BME280;45163;47.690;11.770;2023-05-07T06:43:51;93231.00;;;20.15;100.00
59367;BME280;45163;47.690;11.770;2023-05-07T06:46:17;93235.19;;;20.76;100.00
59367;BME280;45163;47.690;11.770;2023-05-07T06:48:42;93235.97;;;20.93;100.00
59367;BME280;45163;47.690;11.770;2023-05-07T06:51:08;93238.50;;;21.25;100.00
59367;BME280;45163;47.690;11.770;2023-05-07T06:53:34;93239.13;;;22.04;100.00
59367;BME280;45163;47.690;11.770;2023-05-07T06:56:01;93233.94;;;21.61;100.00
59367;BME280;45163;47.690;11.770;2023-05-07T06:58:26;93231.03;;;22.06;100.00
59367;BME280;45163;47.690;11.770;2023-05-07T07:00:52;93232.53;;;22.07;100.00
59367;BME280;45163;47.690;11.770;2023-05-07T07:03:18;93237.56;;;22.25;100.00
59367;BME280;45163;47.690;11.770;2023-05-07T07:05:43;93219.31;;;22.35;100.00
59367;BME280;45163;47.690;11.770;2023-05-07T07:08:09;93230.66;;;22.90;100.00
59367;BME280;45163;47.690;11.770;2023-05-07T07:10:35;93223.38;;;23.17;100.00
59367;BME280;45163;47.690;11.770;2023-05-07T07:13:01;93221.53;;;23.55;100.00
59367;BME280;45163;47.690;11.770;2023-05-07T07:15:27;93213.84;;;23.37;100.00
59367;BME280;45163;47.690;11.770;2023-05-07T07:17:52;93219.16;;;24.14;100.00
59367;BME280;45163;47.690;11.770;2023-05-07T07:20:18;93221.03;;;24.68;100.00
59367;BME280;45163;47.690;11.770;2023-05-07T07:22:44;93221.03;;;24.68;100.00
59367;BME280;45163;47.690;11.770;2023-05-07T07:25:10;93219.84;;;25.15;100.00
59367;BME280;45163;47.690;11.770;2023-05-07T07:27:36;93212.22;;;25.15;100.00
59367;BME280;45163;47.690;11.770;2023-05-07T07:30:02;93205.03;;;25.65;100.00
59367;BME280;45163;47.690;11.770;2023-05-07T07:32:28;93207.00;;;25.25;94.69
59367;BME280;45163;47.690;11.770;2023-05-07T07:34:54;93216.50;;;25.35;100.00
59367;BME280;45163;47.690;11.770;2023-05-07T07:37:20;93204.38;;;25.46;100.00
59367;BME280;45163;47.690;11.770;2023-05-07T07:39:45;93215.91;;;25.23;91.98
59367;BME280;45163;47.690;11.770;2023-05-07T07:42:11;93208.38;;;25.50;83.57
59367;BME280;45163;47.690;11.770;2023-05-07T07:44:37;93206.59;;;25.93;87.58
59367;BME280;45163;47.690;11.770;2023-05-07T07:47:05;93207.31;;;25.67;80.06
59367;BME280;45163;47.690;11.770;2023-05-07T07:49:30;93219.94;;;26.26;74.38
59367;BME280;45163;47.690;11.770;2023-05-07T07:51:56;93212.47;;;26.69;73.59
59367;BME280;45163;47.690;11.770;2023-05-07T07:54:24;93200.47;;;26.81;69.68
59367;BME280;45163;47.690;11.770;2023-05-07T07:56:50;93208.31;;;26.83;71.68
59367;BME280;45163;47.690;11.770;2023-05-07T07:59:16;93203.56;;;27.25;66.05
59367;BME280;45163;47.690;11.770;2023-05-07T08:01:44;93204.13;;;26.90;70.31
59367;BME280;45163;47.690;11.770;2023-05-07T08:04:12;93205.41;;;26.54;75.77
59367;BME280;45163;47.690;11.770;2023-05-07T08:06:37;93208.75;;;26.87;76.05
59367;BME280;45163;47.690;11.770;2023-05-07T08:09:03;93214.88;;;26.51;76.73
59367;BME280;45163;47.690;11.770;2023-05-07T08:11:29;93213.22;;;25.63;80.30
59367;BME280;45163;47.690;11.770;2023-05-07T08:13:55;93207.56;;;25.04;81.66
59367;BME280;45163;47.690;11.770;2023-05-07T08:16:21;93211.53;;;24.58;83.22
59367;BME280;45163;47.690;11.770;2023-05-07T08:18:47;93219.63;;;24.94;82.37
59367;BME280;45163;47.690;11.770;2023-05-07T08:21:12;93213.84;;;24.92;80.48
59367;BME280;45163;47.690;11.770;2023-05-07T08:23:38;93212.31;;;25.42;73.31
59367;BME280;45163;47.690;11.770;2023-05-07T08:26:04;93215.09;;;24.34;80.61
59367;BME280;45163;47.690;11.770;2023-05-07T08:28:30;93212.19;;;24.45;86.83
59367;BME280;45163;47.690;11.770;2023-05-07T08:30:56;93213.53;;;25.14;83.39
59367;BME280;45163;47.690;11.770;2023-05-07T08:33:26;93218.66;;;26.01;74.83
59367;BME280;45163;47.690;11.770;2023-05-07T08:35:52;93219.53;;;26.09;75.85
59367;BME280;45163;47.690;11.770;2023-05-07T08:38:18;93215.81;;;26.67;75.09
59367;BME280;45163;47.690;11.770;2023-05-07T08:40:43;93216.41;;;26.87;72.72
59367;BME280;45163;47.690;11.770;2023-05-07T08:43:11;93208.31;;;26.83;70.14
59367;BME280;45163;47.690;11.770;2023-05-07T08:45:37;93219.28;;;25.94;75.91
59367;BME280;45163;47.690;11.770;2023-05-07T08:48:05;93213.69;;;26.33;77.28
59367;BME280;45163;47.690;11.770;2023-05-07T08:50:35;93217.66;;;26.25;78.62
59367;BME280;45163;47.690;11.770;2023-05-07T08:53:02;93205.84;;;26.79;72.87
59367;BME280;45163;47.690;11.770;2023-05-07T08:55:28;93214.06;;;26.77;74.17
59367;BME280;45163;47.690;11.770;2023-05-07T08:57:54;93205.75;;;27.19;72.29
59367;BME280;45163;47.690;11.770;2023-05-07T09:00:20;93205.78;;;27.06;74.51
59367;BME280;45163;47.690;11.770;2023-05-07T09:02:45;93206.31;;;27.18;68.89
59367;BME280;45163;47.690;11.770;2023-05-07T09:05:11;93215.41;;;27.31;65.30
59367;BME280;45163;47.690;11.770;2023-05-07T09:07:37;93205.19;;;27.42;63.65
59367;BME280;45163;47.690;11.770;2023-05-07T09:10:03;93215.75;;;26.46;66.05
59367;BME280;45163;47.690;11.770;2023-05-07T09:12:29;93210.41;;;27.03;66.51
59367;BME280;45163;47.690;11.770;2023-05-07T09:14:56;93206.50;;;27.62;62.55
59367;BME280;45163;47.690;11.770;2023-05-07T09:17:21;93208.78;;;27.71;61.24
59367;BME280;45163;47.690;11.770;2023-05-07T09:19:47;93213.13;;;27.72;58.36
59367;BME280;45163;47.690;11.770;2023-05-07T09:22:13;93204.19;;;28.02;56.79
59367;BME280;45163;47.690;11.770;2023-05-07T09:24:39;93211.28;;;27.74;56.49
59367;BME280;45163;47.690;11.770;2023-05-07T09:27:05;93210.25;;;27.64;55.78
59367;BME280;45163;47.690;11.770;2023-05-07T09:29:31;93207.72;;;27.53;54.31
59367;BME280;45163;47.690;11.770;2023-05-07T09:32:06;93206.09;;;27.78;53.87
59367;BME280;45163;47.690;11.770;2023-05-07T09:34:32;93199.41;;;28.46;54.15
59367;BME280;45163;47.690;11.770;2023-05-07T09:36:58;93192.47;;;27.41;52.78
59367;BME280;45163;47.690;11.770;2023-05-07T09:39:24;93199.31;;;27.74;55.73
59367;BME280;45163;47.690;11.770;2023-05-07T09:41:50;93200.81;;;28.76;50.32
59367;BME280;45163;47.690;11.770;2023-05-07T09:44:18;93194.06;;;29.23;46.96
59367;BME280;45163;47.690;11.770;2023-05-07T09:46:44;93199.25;;;30.49;45.95
59367;BME280;45163;47.690;11.770;2023-05-07T09:49:15;93197.69;;;30.71;41.75
59367;BME280;45163;47.690;11.770;2023-05-07T09:51:47;93194.28;;;30.17;43.62
59367;BME280;45163;47.690;11.770;2023-05-07T09:54:14;93192.22;;;29.64;41.96
59367;BME280;45163;47.690;11.770;2023-05-07T09:56:40;93191.25;;;29.23;43.57
59367;BME280;45163;47.690;11.770;2023-05-07T09:59:10;93183.38;;;29.37;39.33
59367;BME280;45163;47.690;11.770;2023-05-07T10:01:38;93188.06;;;29.42;44.66
59367;BME280;45163;47.690;11.770;2023-05-07T10:04:03;93194.25;;;30.24;43.48
59367;BME280;45163;47.690;11.770;2023-05-07T10:06:30;93184.91;;;30.78;45.46
59367;BME280;45163;47.690;11.770;2023-05-07T10:08:56;93186.59;;;29.87;43.17
59367;BME280;45163;47.690;11.770;2023-05-07T10:11:22;93187.69;;;31.18;37.11
59367;BME280;45163;47.690;11.770;2023-05-07T10:13:48;93190.31;;;29.97;39.27
59367;BME280;45163;47.690;11.770;2023-05-07T10:16:14;93187.19;;;29.77;43.59
59367;BME280;45163;47.690;11.770;2023-05-07T10:18:40;93180.75;;;31.19;39.69
59367;BME280;45163;47.690;11.770;2023-05-07T10:21:24;93186.88;;;31.83;36.06
59367;BME280;45163;47.690;11.770;2023-05-07T10:23:55;93193.16;;;30.20;40.84
59367;BME280;45163;47.690;11.770;2023-05-07T10:26:23;93193.47;;;29.09;45.20
59367;BME280;45163;47.690;11.770;2023-05-07T10:29:01;93185.84;;;29.63;45.74
59367;BME280;45163;47.690;11.770;2023-05-07T10:34:02;93192.94;;;29.18;41.64
59367;BME280;45163;47.690;11.770;2023-05-07T10:36:32;93192.06;;;30.63;39.72
59367;BME280;45163;47.690;11.770;2023-05-07T10:38:59;93199.16;;;29.47;39.43
59367;BME280;45163;47.690;11.770;2023-05-07T10:41:25;93200.44;;;29.23;38.41
59367;BME280;45163;47.690;11.770;2023-05-07T10:43:51;93195.09;;;27.80;45.52
59367;BME280;45163;47.690;11.770;2023-05-07T10:46:18;93195.31;;;28.55;54.20
59367;BME280;45163;47.690;11.770;2023-05-07T10:51:29;93198.53;;;30.41;39.03
59367;BME280;45163;47.690;11.770;2023-05-07T10:56:40;93193.06;;;32.06;33.83
59367;BME280;45163;47.690;11.770;2023-05-07T11:02:05;93183.59;;;31.11;36.41
59367;BME280;45163;47.690;11.770;2023-05-07T11:04:33;93187.97;;;31.37;35.55
59367;BME280;45163;47.690;11.770;2023-05-07T11:12:16;93188.38;;;28.48;40.78
59367;BME280;45163;47.690;11.770;2023-05-07T11:17:08;93194.28;;;29.63;40.35
59367;BME280;45163;47.690;11.770;2023-05-07T11:19:54;93195.19;;;29.27;40.97
59367;BME280;45163;47.690;11.770;2023-05-07T11:24:55;93191.69;;;28.83;39.34
59367;BME280;45163;47.690;11.770;2023-05-07T11:27:25;93186.56;;;29.41;39.64
59367;BME280;45163;47.690;11.770;2023-05-07T11:29:51;93189.41;;;29.79;35.89
59367;BME280;45163;47.690;11.770;2023-05-07T11:32:26;93192.78;;;30.16;35.98
59367;BME280;45163;47.690;11.770;2023-05-07T11:34:53;93184.72;;;30.68;35.29
59367;BME280;45163;47.690;11.770;2023-05-07T11:37:20;93187.34;;;29.95;37.34
59367;BME280;45163;47.690;11.770;2023-05-07T11:39:46;93180.66;;;31.84;32.60
59367;BME280;45163;47.690;11.770;2023-05-07T11:42:25;93187.97;;;31.05;34.63
59367;BME280;45163;47.690;11.770;2023-05-07T11:44:50;93181.44;;;32.02;33.06
59367;BME280;45163;47.690;11.770;2023-05-07T11:47:19;93175.38;;;31.88;31.89
59367;BME280;45163;47.690;11.770;2023-05-07T11:49:48;93181.50;;;30.79;32.83
59367;BME280;45163;47.690;11.770;2023-05-07T11:52:15;93171.81;;;32.05;34.49
59367;BME280;45163;47.690;11.770;2023-05-07T11:54:41;93167.94;;;32.35;33.74
59367;BME280;45163;47.690;11.770;2023-05-07T11:57:15;93171.75;;;32.82;33.78
59367;BME280;45163;47.690;11.770;2023-05-07T11:59:41;93169.06;;;32.40;32.00
59367;BME280;45163;47.690;11.770;2023-05-07T12:02:09;93183.53;;;30.31;34.35
59367;BME280;45163;47.690;11.770;2023-05-07T12:04:36;93179.53;;;27.79;40.14
59367;BME280;45163;47.690;11.770;2023-05-07T12:07:03;93181.34;;;28.26;44.71
59367;BME280;45163;47.690;11.770;2023-05-07T12:09:29;93180.66;;;27.35;43.85
59367;BME280;45163;47.690;11.770;2023-05-07T12:11:55;93179.84;;;27.26;47.34
59367;BME280;45163;47.690;11.770;2023-05-07T12:14:21;93177.72;;;28.47;43.72
59367;BME280;45163;47.690;11.770;2023-05-07T12:16:47;93176.09;;;29.80;38.14
59367;BME280;45163;47.690;11.770;2023-05-07T12:19:13;93182.59;;;28.54;39.76
59367;BME280;45163;47.690;11.770;2023-05-07T12:21:39;93182.31;;;27.30;42.65
59367;BME280;45163;47.690;11.770;2023-05-07T12:24:05;93177.53;;;26.83;49.91
59367;BME280;45163;47.690;11.770;2023-05-07T12:26:31;93177.41;;;26.28;49.03
59367;BME280;45163;47.690;11.770;2023-05-07T12:28:57;93185.41;;;25.84;51.03
59367;BME280;45163;47.690;11.770;2023-05-07T12:31:25;93170.75;;;26.44;52.90
59367;BME280;45163;47.690;11.770;2023-05-07T12:33:51;93170.31;;;25.74;49.37
59367;BME280;45163;47.690;11.770;2023-05-07T12:36:17;93167.63;;;26.35;49.64
59367;BME280;45163;47.690;11.770;2023-05-07T12:38:43;93177.41;;;25.75;50.22
59367;BME280;45163;47.690;11.770;2023-05-07T12:41:09;93173.72;;;25.40;52.31
59367;BME280;45163;47.690;11.770;2023-05-07T12:43:35;93157.56;;;25.33;54.49
59367;BME280;45163;47.690;11.770;2023-05-07T12:46:03;93166.75;;;24.82;55.66
59367;BME280;45163;47.690;11.770;2023-05-07T12:48:29;93163.78;;;24.94;59.56
59367;BME280;45163;47.690;11.770;2023-05-07T12:50:56;93174.31;;;24.88;57.82
59367;BME280;45163;47.690;11.770;2023-05-07T12:53:23;93169.06;;;24.97;59.89
59367;BME280;45163;47.690;11.770;2023-05-07T12:55:54;93169.41;;;24.18;60.64
59367;BME280;45163;47.690;11.770;2023-05-07T12:58:20;93168.69;;;24.55;63.86
59367;BME280;45163;47.690;11.770;2023-05-07T13:00:50;93160.06;;;24.53;63.43